Terminal Aerodrome Forecast
Issued by NWS Newport/Morehead City, NC

Current Version | Previous Version | Text Only | Print | Product List | Glossary Off
Versions: 1 2 3 4 5 6 7 8 9 10 11 12 13

000
FTUS42 KMHX 301739
TAFEWN
TAF
KEWN 301739Z 3018/3118 VRB05KT P6SM SCT040 OVC150
     FM310200 VRB03KT P6SM BKN050
     FM310800 VRB03KT 5SM BR VCSH BKN015
     FM311400 VRB06KT P6SM -SHRA OVC030=

USA.gov is the U.S. government's official web portal to all federal, state and local government web resources and services.